Time;durP1;ratioP1;P1;durP2;ratioP2;P2;SDS_P1;SDS_P2;PMS_P1;PMS_P2;Temp;Humidity;BMP_temperature;BMP_pressure;BME280_temperature;BME280_humidity;BME280_pressure;Samples;Min_cycle;Max_cycle;Signal;HPM_P1;HPM_P2
2021/06/02 00:00:14;;;;;;;5.93;2.92;;;;;;;8.42;80.34;98245.66;5064830;28;20201;-65
2021/06/02 00:02:46;;;;;;;5.05;3.13;;;;;;;8.36;80.56;98243.97;5064440;28;20028;-65
2021/06/02 00:05:12;;;;;;;4.28;2.92;;;;;;;8.44;80.94;98242.09;5064678;28;20024;-65
2021/06/02 00:07:41;;;;;;;5.10;3.17;;;;;;;8.37;79.97;98232.63;5064698;28;20036;-65
2021/06/02 00:10:09;;;;;;;5.63;2.80;;;;;;;8.49;80.05;98245.50;5064685;28;20056;-65
2021/06/02 00:12:35;;;;;;;5.70;2.78;;;;;;;8.30;81.32;98238.84;5064585;28;20028;-65
2021/06/02 00:15:01;;;;;;;4.88;2.60;;;;;;;8.38;80.12;98236.97;5057581;28;20084;-65
2021/06/02 00:17:27;;;;;;;3.78;2.90;;;;;;;8.35;80.44;98242.25;5044602;28;20025;-65
2021/06/02 00:19:52;;;;;;;7.30;2.85;;;;;;;8.40;79.31;98235.19;5044561;28;20048;-65
2021/06/02 00:22:18;;;;;;;6.53;3.38;;;;;;;8.35;80.59;98234.38;5044434;28;20056;-65
2021/06/02 00:24:43;;;;;;;5.20;3.20;;;;;;;8.36;80.07;98230.84;5044477;28;20072;-65
2021/06/02 00:27:12;;;;;;;3.25;2.80;;;;;;;8.10;80.25;98229.56;5044292;28;20049;-65
2021/06/02 00:29:40;;;;;;;3.13;2.67;;;;;;;8.13;80.84;98230.34;5044423;28;20085;-65
2021/06/02 00:32:07;;;;;;;7.25;3.05;;;;;;;8.17;79.86;98234.66;5044320;28;20032;-65
2021/06/02 00:34:34;;;;;;;4.63;3.10;;;;;;;8.15;80.88;98232.94;5044290;28;20025;-65
2021/06/02 00:37:01;;;;;;;3.50;2.92;;;;;;;8.12;80.98;98231.25;5044243;28;20036;-65
2021/06/02 00:39:27;;;;;;;4.07;3.15;;;;;;;8.10;80.92;98230.41;5044217;28;20035;-65
2021/06/02 00:41:53;;;;;;;8.00;3.28;;;;;;;8.16;79.98;98235.53;5044198;28;20293;-65
2021/06/02 00:44:19;;;;;;;4.78;3.15;;;;;;;7.92;80.19;98228.09;5059247;28;20036;-65
2021/06/02 00:46:47;;;;;;;4.03;2.90;;;;;;;7.82;81.47;98231.72;5064085;28;20024;-65
2021/06/02 00:49:24;;;;;;;10.38;3.08;;;;;;;7.74;81.90;98225.72;5064042;28;20025;-65
2021/06/02 00:52:04;;;;;;;3.47;2.67;;;;;;;7.91;81.65;98234.19;5063986;28;20089;-65
2021/06/02 00:54:31;;;;;;;4.20;2.88;;;;;;;8.05;81.24;98221.75;5063995;28;20052;-65
2021/06/02 00:57:06;;;;;;;4.43;3.05;;;;;;;7.91;80.63;98236.81;5064165;28;20025;-65
2021/06/02 00:59:36;;;;;;;4.00;2.90;;;;;;;7.88;81.34;98231.63;5063973;28;20189;-65
2021/06/02 01:02:02;;;;;;;5.40;3.00;;;;;;;7.91;81.28;98228.94;5063851;28;20071;-65
2021/06/02 01:04:28;;;;;;;3.55;2.90;;;;;;;7.92;80.60;98225.47;5061129;28;20096;-65
2021/06/02 01:06:54;;;;;;;4.15;3.20;;;;;;;7.83;81.28;98224.72;5044140;28;20036;-65
2021/06/02 01:09:24;;;;;;;4.97;2.83;;;;;;;7.95;79.73;98225.41;5043920;28;20032;-65
2021/06/02 01:11:52;;;;;;;3.75;3.00;;;;;;;7.80;80.99;98223.03;5043871;28;20021;-65
2021/06/02 01:14:20;;;;;;;6.88;3.05;;;;;;;7.86;81.41;98230.78;5043809;28;20382;-65
2021/06/02 01:16:46;;;;;;;5.90;3.10;;;;;;;7.83;81.04;98220.34;5047109;28;20029;-65
2021/06/02 01:19:12;;;;;;;4.80;3.38;;;;;;;7.84;81.20;98227.31;5048187;28;20309;-65
2021/06/02 01:21:51;;;;;;;3.88;2.78;;;;;;;7.72;81.35;98218.78;5048963;28;20037;-65
2021/06/02 01:24:16;;;;;;;3.35;2.72;;;;;;;7.80;81.21;98217.78;5048112;28;20346;-65
2021/06/02 01:26:42;;;;;;;4.05;3.15;;;;;;;7.83;80.96;98230.84;5047644;28;20096;-65
2021/06/02 01:29:07;;;;;;;4.65;3.13;;;;;;;7.71;81.28;98225.78;5047736;28;20089;-65
2021/06/02 01:31:43;;;;;;;4.03;2.80;;;;;;;7.54;80.73;98222.53;5047700;28;20303;-65
2021/06/02 01:34:20;;;;;;;4.68;3.38;;;;;;;7.56;81.78;98223.38;5047701;28;20029;-65
2021/06/02 01:37:13;;;;;;;4.65;3.22;;;;;;;7.61;81.50;98228.53;5047634;28;20022;-65
2021/06/02 01:40:10;;;;;;;4.97;3.47;;;;;;;7.73;81.41;98231.88;5059555;28;20029;-65
2021/06/02 01:42:49;;;;;;;5.43;3.10;;;;;;;7.59;81.17;98231.19;5067276;28;20032;-65
2021/06/02 01:45:50;;;;;;;3.45;3.00;;;;;;;7.36;81.72;98228.00;5065581;28;20029;-65
2021/06/02 01:48:24;;;;;;;4.65;3.30;;;;;;;7.34;82.73;98224.53;5067425;28;20021;-65
2021/06/02 01:51:24;;;;;;;3.42;2.72;;;;;;;7.54;82.56;98235.63;5067423;28;20098;-65
2021/06/02 01:53:55;;;;;;;5.15;3.17;;;;;;;7.62;80.44;98231.13;5067283;28;20040;-65
2021/06/02 01:56:49;;;;;;;3.55;3.03;;;;;;;7.42;81.64;98233.19;5067549;28;20312;-65
2021/06/02 01:59:26;;;;;;;8.68;2.95;;;;;;;7.41;81.61;98236.69;5067193;28;20025;-65
2021/06/02 02:02:29;;;;;;;4.10;3.05;;;;;;;7.41;81.40;98241.03;5067138;28;20025;-65
2021/06/02 02:05:24;;;;;;;4.20;3.00;;;;;;;7.31;81.06;98232.44;5067085;28;20033;-65
2021/06/02 02:08:14;;;;;;;4.05;3.00;;;;;;;7.36;81.49;98233.25;5055619;28;20049;-65
2021/06/02 02:10:47;;;;;;;4.13;3.05;;;;;;;7.38;81.75;98226.25;5046986;28;20029;-65
2021/06/02 02:13:19;;;;;;;5.63;3.10;;;;;;;7.34;80.73;98235.00;5047011;28;20386;-65
2021/06/02 02:16:10;;;;;;;3.55;3.03;;;;;;;7.31;81.82;98228.97;5046910;28;20045;-65
2021/06/02 02:19:12;;;;;;;3.25;2.63;;;;;;;7.41;81.96;98225.34;5046849;28;20048;-65
2021/06/02 02:21:59;;;;;;;8.93;3.22;;;;;;;7.22;81.90;98222.09;5046695;28;20207;-65
2021/06/02 02:24:29;;;;;;;4.72;2.88;;;;;;;7.24;82.52;98222.94;5046800;28;20064;-65
2021/06/02 02:27:13;;;;;;;4.40;3.17;;;;;;;7.31;81.11;98232.44;5046225;28;20073;-65
2021/06/02 02:30:02;;;;;;;2.95;2.65;;;;;;;7.15;81.89;98222.19;5046670;28;20032;-65
2021/06/02 02:32:59;;;;;;;4.10;2.70;;;;;;;7.10;81.73;98224.88;5046629;28;20027;-65
2021/06/02 02:35:47;;;;;;;7.40;3.08;;;;;;;7.17;81.60;98230.88;5046515;28;20098;-65
2021/06/02 02:38:30;;;;;;;3.40;2.90;;;;;;;7.19;81.17;98232.63;5045967;28;20033;-65
2021/06/02 02:41:17;;;;;;;5.50;3.20;;;;;;;7.20;81.86;98230.84;5046475;28;20080;-65
2021/06/02 02:44:05;;;;;;;6.88;3.10;;;;;;;7.17;81.83;98236.09;5058848;28;20033;-64
2021/06/02 02:46:59;;;;;;;5.00;3.13;;;;;;;6.92;82.04;98240.78;5066303;28;20087;-64
2021/06/02 02:49:43;;;;;;;4.63;3.25;;;;;;;7.09;83.24;98236.19;5065381;28;20032;-64
2021/06/02 02:52:41;;;;;;;5.45;3.20;;;;;;;7.16;82.67;98240.50;5066426;28;20066;-64
2021/06/02 02:55:12;;;;;;;3.67;2.75;;;;;;;7.10;82.48;98240.56;5066357;28;20029;-64
2021/06/02 02:57:52;;;;;;;6.22;3.30;;;;;;;7.20;82.14;98239.56;5066058;28;20029;-64
2021/06/02 03:00:20;;;;;;;4.65;3.00;;;;;;;6.89;82.06;98246.03;5066051;28;20027;-64
2021/06/02 03:03:03;;;;;;;5.57;3.13;;;;;;;6.86;82.38;98246.06;5065838;28;20025;-64
2021/06/02 03:05:30;;;;;;;;;;;;;;;6.97;82.53;98249.44;5066444;28;20088;-64
2021/06/02 03:08:18;;;;;;;4.57;2.97;;;;;;;7.03;82.82;98246.75;5065884;28;19962;-64
2021/06/02 03:11:10;;;;;;;5.00;3.30;;;;;;;7.10;82.78;98250.16;5064572;28;20028;-64
2021/06/02 03:14:01;;;;;;;3.92;2.70;;;;;;;7.05;81.70;98252.81;5045880;28;20029;-64
2021/06/02 03:16:33;;;;;;;3.67;2.63;;;;;;;7.13;82.08;98252.75;5045737;28;20029;-64
2021/06/02 03:19:07;;;;;;;3.80;3.03;;;;;;;7.02;81.93;98259.88;5045785;28;20029;-64
2021/06/02 03:21:48;;;;;;;3.50;2.97;;;;;;;7.06;81.31;98259.81;5045656;28;20040;-64
2021/06/02 03:24:45;;;;;;;3.90;3.15;;;;;;;6.87;82.39;98253.06;5045609;28;20025;-64
2021/06/02 03:27:17;;;;;;;4.30;2.90;;;;;;;6.88;82.38;98254.78;5045442;28;20088;-64
2021/06/02 03:29:54;;;;;;;7.13;3.45;;;;;;;6.90;82.36;98266.09;5045577;28;20017;-64
2021/06/02 03:32:58;;;;;;;4.00;3.17;;;;;;;6.81;82.38;98268.81;5045450;28;20017;-64
2021/06/02 03:35:26;;;;;;;3.22;2.78;;;;;;;6.86;82.13;98272.22;5045359;28;20030;-64
2021/06/02 03:38:01;;;;;;;3.90;2.53;;;;;;;6.93;81.55;98273.88;5044652;28;20018;-64
2021/06/02 03:41:03;;;;;;;4.07;3.15;;;;;;;6.72;82.35;98268.91;5058279;28;20315;-64
2021/06/02 03:43:48;;;;;;;8.63;3.30;;;;;;;6.70;82.43;98270.66;5065252;28;20070;-64
2021/06/02 03:46:34;;;;;;;4.28;3.25;;;;;;;6.77;82.23;98272.31;5065169;28;20055;-64
2021/06/02 03:49:27;;;;;;;4.85;2.80;;;;;;;6.85;81.86;98273.13;5065184;28;20032;-64
2021/06/02 03:52:07;;;;;;;3.28;2.75;;;;;;;6.90;81.40;98273.94;5065091;28;20086;-64
2021/06/02 03:54:53;;;;;;;5.40;3.10;;;;;;;6.83;81.70;98277.47;5065068;28;20343;-64
2021/06/02 03:57:47;;;;;;;4.57;2.72;;;;;;;6.88;81.34;98283.56;5064973;28;20075;-64
2021/06/02 04:00:23;;;;;;;3.03;2.63;;;;;;;6.97;81.79;98280.84;5064451;28;20036;-64
2021/06/02 04:03:01;;;;;;;3.33;2.95;;;;;;;7.03;81.80;98278.16;5064665;28;20021;-64
2021/06/02 04:05:38;;;;;;;5.95;3.00;;;;;;;6.85;81.68;98286.19;5064866;28;20029;-64
2021/06/02 04:08:43;;;;;;;6.60;3.08;;;;;;;6.80;83.02;98282.75;5056910;28;20225;-64
2021/06/02 04:11:09;;;;;;;5.65;3.55;;;;;;;6.90;83.06;98288.78;5044756;28;20079;-64
2021/06/02 04:13:34;;;;;;;6.03;3.50;;;;;;;6.99;82.55;98288.69;5044700;28;20260;-64
2021/06/02 04:16:15;;;;;;;4.72;3.17;;;;;;;7.12;82.18;98295.50;5044624;28;20053;-64
2021/06/02 04:18:47;;;;;;;4.05;3.17;;;;;;;7.20;82.82;98312.84;5046217;28;20063;-64
2021/06/02 04:21:17;;;;;;;3.90;3.17;;;;;;;7.21;81.86;98314.56;5044592;28;20366;-64
2021/06/02 04:23:45;;;;;;;4.35;3.03;;;;;;;7.19;81.87;98318.97;5048539;28;20080;-64
2021/06/02 04:26:12;;;;;;;4.75;3.55;;;;;;;7.16;82.88;98324.25;5063750;28;20104;-64
2021/06/02 04:28:38;;;;;;;4.70;3.45;;;;;;;7.20;83.29;98325.94;5063873;28;20025;-64
2021/06/02 04:31:13;;;;;;;4.60;3.10;;;;;;;7.46;83.38;98318.66;5064070;28;20024;-64
2021/06/02 04:33:40;;;;;;;7.03;3.13;;;;;;;8.17;79.71;98312.44;5060179;28;20013;-64
2021/06/02 04:36:08;;;;;;;4.72;2.85;;;;;;;9.10;77.28;98310.00;5063758;28;20117;-64
2021/06/02 04:38:34;;;;;;;2.95;2.65;;;;;;;10.25;73.61;98309.34;5062690;28;20052;-64
2021/06/02 04:41:05;;;;;;;7.38;2.80;;;;;;;11.17;70.66;98307.84;5063514;28;20131;-64
2021/06/02 04:43:33;;;;;;;7.32;2.92;;;;;;;11.66;68.05;98313.53;5063256;28;20025;-64
2021/06/02 04:46:01;;;;;;;3.22;2.50;;;;;;;12.28;66.19;98309.88;5062887;28;20316;-65
2021/06/02 04:48:27;;;;;;;3.53;2.10;;;;;;;13.08;63.18;98309.88;5064017;28;20023;-65
2021/06/02 04:51:25;;;;;;;2.67;2.00;;;;;;;13.77;61.49;98309.16;5063998;28;20023;-65
2021/06/02 04:53:56;;;;;;;3.17;1.95;;;;;;;13.55;61.31;98290.56;5063495;28;20099;-65
2021/06/02 04:56:57;;;;;;;6.07;2.17;;;;;;;14.44;60.52;98295.06;5063959;28;20056;-65
2021/06/02 04:59:32;;;;;;;2.17;1.80;;;;;;;14.91;57.06;98301.94;5063952;28;20032;-65
2021/06/02 05:02:29;;;;;;;1.95;1.75;;;;;;;15.31;56.75;98295.81;5063823;28;20028;-65
2021/06/02 05:05:23;;;;;;;3.75;2.20;;;;;;;15.88;53.53;98291.44;5063868;28;20039;-65
2021/06/02 05:08:16;;;;;;;3.67;2.28;;;;;;;15.49;55.58;98298.56;5063662;28;20096;-65
2021/06/02 05:11:03;;;;;;;2.67;1.73;;;;;;;16.24;54.90;98308.34;5063814;28;20415;-65
2021/06/02 05:13:50;;;;;;;2.78;2.00;;;;;;;16.29;54.58;98306.31;5063768;28;20028;-65
2021/06/02 05:16:34;;;;;;;4.03;2.00;;;;;;;16.99;54.43;98309.09;5063722;28;20033;-65
2021/06/02 05:20:03;;;;;;;5.25;2.50;;;;;;;17.45;53.22;98308.50;5063768;28;20021;-65
2021/06/02 05:22:49;;;;;;;6.38;2.25;;;;;;;17.82;52.85;98302.13;4988537;28;20045;-65
2021/06/02 05:25:36;;;;;;;5.50;2.30;;;;;;;18.14;52.76;98311.88;5060152;28;20062;-65
2021/06/02 05:28:38;;;;;;;4.45;2.00;;;;;;;18.63;50.45;98302.91;5063677;28;20025;-65
2021/06/02 05:31:34;;;;;;;2.65;2.28;;;;;;;18.27;51.04;98302.28;5063686;28;20052;-65
2021/06/02 05:34:02;;;;;;;5.75;2.30;;;;;;;18.34;50.76;98303.66;5063656;28;20324;-65
2021/06/02 05:36:45;;;;;;;3.67;1.98;;;;;;;18.81;51.77;98304.53;5063631;28;20031;-65
2021/06/02 05:39:35;;;;;;;3.85;1.85;;;;;;;19.37;50.48;98302.13;5063609;28;20029;-65
2021/06/02 05:42:31;;;;;;;3.28;2.30;;;;;;;19.50;50.64;98297.75;5063562;28;20028;-65
2021/06/02 05:45:00;;;;;;;3.42;1.75;;;;;;;20.31;48.96;98308.69;5063325;28;20037;-65
2021/06/02 05:47:28;;;;;;;4.00;2.33;;;;;;;20.42;47.82;98305.34;5063465;28;20312;-65
2021/06/02 05:50:15;;;;;;;2.42;1.80;;;;;;;21.09;47.70;98292.84;5063507;28;20028;-65
2021/06/02 05:53:02;;;;;;;4.72;1.98;;;;;;;21.48;47.14;98304.50;5062235;28;20032;-65
2021/06/02 05:56:05;;;;;;;1.85;1.70;;;;;;;20.65;48.49;98302.91;5063418;28;20033;-65
2021/06/02 05:59:07;;;;;;;4.43;1.70;;;;;;;19.56;50.93;98297.41;5063354;28;20021;-65
2021/06/02 06:01:51;;;;;;;;;;;;;;;17.87;56.73;98300.09;5065067;28;20335;-65
2021/06/02 06:04:31;;;;;;;4.13;2.13;;;;;;;18.75;53.84;98304.88;5067049;28;19975;-65
2021/06/02 06:07:15;;;;;;;4.97;2.20;;;;;;;18.78;54.34;98302.91;5067058;28;20029;-65
2021/06/02 06:09:59;;;;;;;4.13;2.38;;;;;;;19.28;53.18;98310.66;5066989;28;20343;-64
2021/06/02 06:12:49;;;;;;;3.53;2.00;;;;;;;20.46;50.82;98313.06;5066915;28;20197;-63
2021/06/02 06:15:51;;;;;;;4.38;2.10;;;;;;;21.13;48.43;98310.41;5066957;28;20021;-63
2021/06/02 06:18:16;;;;;;;3.80;1.70;;;;;;;21.84;47.48;98307.34;5066865;28;20052;-63
2021/06/02 06:21:09;;;;;;;4.22;2.30;;;;;;;22.38;47.58;98308.81;5066842;28;20036;-63
2021/06/02 06:24:06;;;;;;;2.75;2.10;;;;;;;22.83;46.92;98306.38;5066655;28;20032;-63
2021/06/02 06:26:45;;;;;;;2.63;2.03;;;;;;;22.57;45.30;98303.88;5066603;28;20060;-63
2021/06/02 06:29:31;;;;;;;3.35;2.15;;;;;;;22.42;46.33;98310.28;5066673;28;20021;-64
2021/06/02 06:32:00;;;;;;;6.25;2.38;;;;;;;23.08;44.73;98305.38;5066588;28;20025;-64
2021/06/02 06:34:30;;;;;;;5.25;2.05;;;;;;;23.03;46.50;98308.41;5066592;28;20324;-64
2021/06/02 06:36:58;;;;;;;6.55;2.28;;;;;;;23.67;44.66;98309.81;5066807;28;20067;-64
2021/06/02 06:39:36;;;;;;;3.85;2.50;;;;;;;24.22;43.71;98315.31;5066441;28;20020;-64
2021/06/02 06:42:02;;;;;;;4.85;2.08;;;;;;;24.50;44.19;98312.13;5066306;28;20029;-64
2021/06/02 06:44:29;;;;;;;3.35;2.10;;;;;;;24.86;43.03;98309.16;5066416;28;20084;-64
2021/06/02 06:46:55;;;;;;;3.40;2.42;;;;;;;25.06;41.31;98315.63;5066578;28;20024;-64
2021/06/02 06:49:25;;;;;;;4.88;1.90;;;;;;;25.64;38.57;98308.91;5066339;28;20047;-64
2021/06/02 06:51:52;;;;;;;2.78;1.83;;;;;;;25.97;41.08;98314.13;5066208;28;20025;-64
2021/06/02 06:54:21;;;;;;;3.33;1.92;;;;;;;26.02;38.53;98311.88;5066176;28;20031;-64
2021/06/02 06:56:47;;;;;;;3.72;2.10;;;;;;;26.80;36.35;98311.13;5066104;28;20025;-64
2021/06/02 06:59:16;;;;;;;1.95;1.77;;;;;;;27.21;36.41;98321.72;5066079;28;20017;-64
2021/06/02 07:01:41;;;;;;;2.75;2.00;;;;;;;27.18;37.88;98322.00;5065957;28;20194;-64
2021/06/02 07:04:08;;;;;;;2.45;1.65;;;;;;;27.54;35.01;98317.81;5065934;28;20024;-64
2021/06/02 07:06:37;;;;;;;2.97;1.63;;;;;;;27.25;35.59;98325.06;5065910;28;20021;-64
2021/06/02 07:09:03;;;;;;;3.75;1.80;;;;;;;27.15;36.21;98321.47;5065865;28;20021;-64
2021/06/02 07:11:36;;;;;;;3.85;1.70;;;;;;;27.50;33.64;98315.53;5065947;28;20029;-64
2021/06/02 07:14:01;;;;;;;5.60;1.65;;;;;;;27.87;33.26;98317.38;5064994;28;20324;-64
2021/06/02 07:16:27;;;;;;;3.20;1.67;;;;;;;27.76;32.06;98317.53;5065823;28;20130;-64
2021/06/02 07:18:56;;;;;;;3.80;1.63;;;;;;;27.12;32.00;98313.63;5065710;28;20088;-64
2021/06/02 07:21:22;;;;;;;2.08;1.88;;;;;;;27.33;30.11;98313.53;5065874;28;20080;-64
2021/06/02 07:23:48;;;;;;;1.83;1.40;;;;;;;27.31;31.39;98319.09;5065621;28;20350;-64
2021/06/02 07:26:13;;;;;;;2.00;1.70;;;;;;;28.02;30.65;98329.47;5065368;28;20347;-64
2021/06/02 07:28:41;;;;;;;6.07;1.50;;;;;;;27.94;32.46;98331.19;5065549;28;20048;-64
2021/06/02 07:31:08;;;;;;;5.63;1.80;;;;;;;28.28;31.54;98322.41;5065513;28;20036;-64
2021/06/02 07:33:35;;;;;;;4.20;1.80;;;;;;;28.52;32.08;98332.78;5065453;28;20087;-64
2021/06/02 07:36:02;;;;;;;2.58;1.50;;;;;;;28.97;31.09;98326.44;5065405;28;20032;-64
2021/06/02 07:38:28;;;;;;;4.07;1.67;;;;;;;29.36;31.62;98321.66;5065437;28;20025;-64
2021/06/02 07:40:55;;;;;;;5.57;1.70;;;;;;;29.77;30.67;98322.91;5065586;28;20049;-64
2021/06/02 07:43:20;;;;;;;4.38;2.33;;;;;;;30.31;29.02;98322.69;5065437;28;20383;-64
2021/06/02 07:45:46;;;;;;;5.32;2.20;;;;;;;30.51;27.71;98329.59;5065223;28;20342;-64
2021/06/02 07:48:12;;;;;;;3.55;1.77;;;;;;;30.51;29.26;98335.00;5065167;28;20030;-64
2021/06/02 07:50:38;;;;;;;6.22;2.15;;;;;;;30.60;31.39;98339.47;5065118;28;20033;-64
2021/06/02 07:53:03;;;;;;;4.90;1.70;;;;;;;30.61;29.73;98342.03;5065328;28;20147;-64
2021/06/02 07:55:29;;;;;;;4.65;2.10;;;;;;;30.99;28.77;98335.28;5063847;28;20028;-64
2021/06/02 07:57:55;;;;;;;5.72;1.90;;;;;;;30.94;30.85;98343.09;5064972;28;20087;-64
2021/06/02 08:00:20;;;;;;;4.50;1.95;;;;;;;30.95;32.55;98339.34;5064944;28;20029;-64
2021/06/02 08:02:46;;;;;;;3.38;1.85;;;;;;;30.84;32.24;98343.19;5064742;28;20228;-64
2021/06/02 08:05:14;;;;;;;4.53;1.88;;;;;;;31.04;30.88;98332.94;5064846;28;20079;-64
2021/06/02 08:07:41;;;;;;;5.55;1.80;;;;;;;31.40;31.84;98339.00;5064745;28;20071;-64
2021/06/02 08:10:07;;;;;;;4.75;1.60;;;;;;;31.24;31.40;98334.34;5064718;28;20024;-64
2021/06/02 08:12:32;;;;;;;4.15;2.00;;;;;;;31.17;32.23;98338.75;5064650;28;20021;-64
2021/06/02 08:14:57;;;;;;;3.42;1.60;;;;;;;31.66;30.59;98345.19;5064623;28;20024;-64
2021/06/02 08:17:23;;;;;;;3.28;1.60;;;;;;;31.41;30.50;98336.13;5064684;28;20415;-64
2021/06/02 08:19:48;;;;;;;8.13;2.08;;;;;;;31.10;32.41;98333.09;5064533;28;20075;-64
2021/06/02 08:22:14;;;;;;;6.13;1.90;;;;;;;31.45;31.03;98337.50;5064446;28;20025;-64
2021/06/02 08:24:40;;;;;;;5.68;2.00;;;;;;;31.58;31.54;98343.31;5064241;28;20051;-64
2021/06/02 08:27:10;;;;;;;7.07;1.83;;;;;;;31.80;31.30;98347.22;5064330;28;20248;-64
2021/06/02 08:29:35;;;;;;;4.13;1.73;;;;;;;31.92;30.38;98352.19;5064423;28;20037;-64
2021/06/02 08:32:01;;;;;;;3.85;1.88;;;;;;;32.23;29.36;98346.91;5064353;28;20063;-64
2021/06/02 08:34:26;;;;;;;3.03;1.80;;;;;;;31.38;31.91;98355.47;5064322;28;20024;-64
2021/06/02 08:36:53;;;;;;;6.40;1.70;;;;;;;31.70;29.06;98350.09;5064290;28;20088;-64
2021/06/02 08:39:18;;;;;;;3.50;1.70;;;;;;;31.87;30.28;98342.84;5064481;28;20030;-64
2021/06/02 08:41:44;;;;;;;5.93;1.73;;;;;;;31.84;28.20;98352.22;5064123;28;20020;-64
2021/06/02 08:44:10;;;;;;;2.58;1.55;;;;;;;31.78;29.18;98343.81;5064171;28;20044;-64
2021/06/02 08:46:36;;;;;;;2.90;1.80;;;;;;;32.00;30.60;98354.06;5064130;28;20432;-64
2021/06/02 08:49:03;;;;;;;5.55;1.70;;;;;;;32.10;29.35;98350.16;5064333;28;20020;-64
2021/06/02 08:51:29;;;;;;;2.83;1.58;;;;;;;32.27;30.46;98349.13;5064286;28;20331;-64
2021/06/02 08:53:56;;;;;;;3.53;1.95;;;;;;;32.50;28.94;98355.59;5064000;28;20020;-64
2021/06/02 08:56:23;;;;;;;4.32;2.05;;;;;;;32.70;28.43;98350.59;5064041;28;20078;-64
2021/06/02 08:58:48;;;;;;;3.30;1.70;;;;;;;32.37;29.84;98349.84;5063976;28;20027;-64
2021/06/02 09:01:14;;;;;;;3.88;1.92;;;;;;;32.26;31.07;98341.13;5063899;28;20029;-64
2021/06/02 09:03:40;;;;;;;5.25;1.90;;;;;;;32.83;28.64;98348.16;5063755;28;20025;-64
2021/06/02 09:06:08;;;;;;;3.78;2.00;;;;;;;33.23;30.08;98344.44;5064106;28;20048;-64
2021/06/02 09:08:37;;;;;;;7.68;1.95;;;;;;;33.43;30.16;98345.75;5063849;28;20028;-64
2021/06/02 09:11:14;;;;;;;5.43;2.00;;;;;;;33.40;27.22;98346.94;5063856;28;20032;-64
2021/06/02 09:13:42;;;;;;;3.15;1.50;;;;;;;33.42;29.84;98352.22;5063803;28;20021;-64
2021/06/02 09:16:24;;;;;;;4.80;1.80;;;;;;;33.53;27.18;98351.84;5063787;28;20029;-64
2021/06/02 09:18:58;;;;;;;4.22;2.13;;;;;;;33.51;28.45;98353.88;5063762;28;20092;-64
2021/06/02 09:21:23;;;;;;;6.80;1.83;;;;;;;33.44;28.92;98358.38;5063717;28;20021;-64
2021/06/02 09:23:50;;;;;;;3.08;2.00;;;;;;;33.48;29.11;98355.09;5063734;28;20032;-64
2021/06/02 09:26:25;;;;;;;2.33;1.58;;;;;;;32.65;29.91;98356.56;5063551;28;20044;-64
2021/06/02 09:29:00;;;;;;;5.70;1.67;;;;;;;33.10;30.13;98351.31;5063751;28;20032;-64
2021/06/02 09:31:31;;;;;;;6.65;1.90;;;;;;;33.22;29.78;98353.69;5063753;28;20017;-64
2021/06/02 09:34:22;;;;;;;4.15;2.00;;;;;;;32.93;29.71;98355.16;5063634;28;20047;-64
2021/06/02 09:36:53;;;;;;;2.08;1.50;;;;;;;32.71;30.20;98355.03;5064807;28;20104;-64
2021/06/02 09:39:21;;;;;;;4.30;2.10;;;;;;;32.84;28.95;98350.72;5067661;28;20029;-64
2021/06/02 09:41:57;;;;;;;3.22;1.70;;;;;;;32.39;31.81;98345.06;5067486;28;20343;-64
2021/06/02 09:44:24;;;;;;;2.97;1.63;;;;;;;32.06;30.71;98340.63;5067897;28;20021;-64
2021/06/02 09:47:10;;;;;;;6.13;2.25;;;;;;;32.06;32.78;98340.63;5067462;28;20075;-64
2021/06/02 09:49:55;;;;;;;3.80;2.05;;;;;;;32.54;30.04;98340.59;5067501;28;20029;-64
2021/06/02 09:52:49;;;;;;;7.78;1.85;;;;;;;32.68;32.94;98337.16;5067438;28;20013;-64
2021/06/02 09:55:14;;;;;;;3.78;2.08;;;;;;;33.10;28.56;98340.41;5067296;28;20032;-64
2021/06/02 09:57:40;;;;;;;4.65;2.30;;;;;;;32.69;31.34;98341.59;5067280;28;20035;-64
2021/06/02 10:00:08;;;;;;;5.05;1.92;;;;;;;33.06;29.20;98339.06;5067454;28;20088;-64
2021/06/02 10:02:34;;;;;;;3.25;2.00;;;;;;;32.72;30.77;98340.38;5067367;28;20025;-64
2021/06/02 10:05:05;;;;;;;4.13;1.90;;;;;;;32.52;29.11;98342.63;5067168;28;20391;-64
2021/06/02 10:07:31;;;;;;;5.97;2.13;;;;;;;32.44;31.06;98339.94;5067347;28;20316;-64
2021/06/02 10:10:08;;;;;;;5.57;2.20;;;;;;;32.87;29.94;98342.22;5065889;28;20340;-64
2021/06/02 10:12:33;;;;;;;6.22;2.17;;;;;;;32.41;30.41;98337.56;5067048;28;20025;-64
2021/06/02 10:14:59;;;;;;;4.72;1.90;;;;;;;32.37;29.38;98344.41;5066995;28;20268;-64
2021/06/02 10:17:33;;;;;;;2.83;1.92;;;;;;;31.90;31.58;98332.47;5066914;28;20082;-64
2021/06/02 10:20:12;;;;;;;4.78;1.80;;;;;;;32.35;31.49;98340.97;5066861;28;20021;-64
2021/06/02 10:22:39;;;;;;;3.50;1.85;;;;;;;32.68;30.43;98344.50;5066768;28;20035;-64
2021/06/02 10:25:08;;;;;;;4.57;2.10;;;;;;;32.11;31.52;98335.50;5066784;28;20051;-64
2021/06/02 10:27:34;;;;;;;5.80;2.20;;;;;;;31.88;31.58;98339.94;5066657;28;20111;-64
2021/06/02 10:30:00;;;;;;;3.72;2.05;;;;;;;31.83;30.85;98331.47;5066922;28;20025;-64
2021/06/02 10:32:26;;;;;;;5.68;1.85;;;;;;;32.15;31.25;98341.47;5066626;28;20032;-64
2021/06/02 10:34:53;;;;;;;5.63;2.10;;;;;;;32.07;31.68;98334.16;5066832;28;20028;-64
2021/06/02 10:37:22;;;;;;;7.28;2.00;;;;;;;32.52;30.13;98334.47;5066466;28;20025;-64
2021/06/02 10:39:56;;;;;;;3.55;1.77;;;;;;;32.51;32.11;98340.94;5066454;28;20265;-64
2021/06/02 10:42:36;;;;;;;3.75;2.08;;;;;;;31.88;32.17;98339.94;5066457;28;20220;-64
2021/06/02 10:45:10;;;;;;;6.35;1.95;;;;;;;31.92;31.78;98341.31;5066439;28;20024;-64
2021/06/02 10:47:36;;;;;;;3.20;1.77;;;;;;;32.14;30.44;98345.25;5066206;28;20220;-64
2021/06/02 10:50:02;;;;;;;4.70;2.13;;;;;;;32.12;33.85;98342.69;5066529;28;20017;-64
2021/06/02 10:52:39;;;;;;;2.55;1.70;;;;;;;32.05;31.22;98341.63;5066220;28;20331;-64
2021/06/02 10:55:34;;;;;;;6.28;2.03;;;;;;;31.58;33.79;98342.44;5066454;28;20300;-64
2021/06/02 10:58:32;;;;;;;5.95;1.80;;;;;;;31.90;33.53;98346.09;5066090;28;20021;-64
2021/06/02 11:01:07;;;;;;;4.60;2.30;;;;;;;31.96;32.39;98344.56;5065807;28;20099;-64
2021/06/02 11:03:33;;;;;;;4.88;2.17;;;;;;;31.56;31.74;98336.31;5065876;28;20056;-64
2021/06/02 11:06:19;;;;;;;5.32;1.88;;;;;;;31.47;34.19;98330.00;5065968;28;20027;-64
2021/06/02 11:08:50;;;;;;;3.97;1.80;;;;;;;31.96;32.74;98334.53;5065907;28;20031;-64
2021/06/02 11:11:25;;;;;;;2.03;1.83;;;;;;;31.88;31.77;98329.06;5065963;28;20021;-64
2021/06/02 11:14:17;;;;;;;9.57;2.25;;;;;;;31.51;33.89;98325.94;5065913;28;20025;-64
2021/06/02 11:17:03;;;;;;;2.88;2.05;;;;;;;31.18;31.96;98324.13;5065415;28;20048;-64
2021/06/02 11:19:42;;;;;;;4.97;1.90;;;;;;;31.36;33.54;98327.63;5065233;28;20029;-64
2021/06/02 11:22:11;;;;;;;2.97;1.90;;;;;;;31.11;34.56;98323.09;5065611;28;20025;-64
2021/06/02 11:24:40;;;;;;;3.90;1.73;;;;;;;31.18;33.47;98324.13;5065679;28;20025;-64
2021/06/02 11:29:54;;;;;;;5.95;1.92;;;;;;;31.10;32.61;98318.69;5065852;28;20025;-64
2021/06/02 11:32:45;;;;;;;3.42;1.92;;;;;;;30.77;34.35;98331.28;5065533;28;20319;-64
2021/06/02 11:35:11;;;;;;;2.33;2.10;;;;;;;30.48;35.08;98324.47;5065509;28;20017;-64
2021/06/02 11:37:36;;;;;;;4.55;1.70;;;;;;;30.53;35.40;98312.09;5065385;28;20066;-64
2021/06/02 11:40:07;;;;;;;3.03;1.95;;;;;;;29.82;38.59;98307.00;5065288;28;20021;-64
2021/06/02 11:42:38;;;;;;;6.50;2.03;;;;;;;30.19;37.47;98321.22;5065212;28;20025;-64
2021/06/02 11:45:05;;;;;;;3.65;2.08;;;;;;;29.84;37.83;98329.41;5065505;28;20087;-64
2021/06/02 11:47:31;;;;;;;4.72;1.90;;;;;;;30.08;35.85;98321.47;5065233;28;20021;-64
2021/06/02 11:50:08;;;;;;;4.45;1.92;;;;;;;30.04;36.27;98322.78;5065156;28;20197;-64
2021/06/02 11:52:34;;;;;;;5.47;2.20;;;;;;;29.85;37.70;98325.69;5065366;28;20021;-64
2021/06/02 11:55:09;;;;;;;5.22;2.25;;;;;;;29.79;38.76;98323.59;5065311;28;20210;-64
2021/06/02 11:57:38;;;;;;;3.40;1.90;;;;;;;29.58;39.48;98317.63;5065324;28;20021;-64
2021/06/02 12:00:17;;;;;;;4.40;1.80;;;;;;;29.50;39.10;98321.09;5064398;28;20062;-64
2021/06/02 12:02:44;;;;;;;2.30;1.80;;;;;;;29.58;38.84;98318.44;5064757;28;20040;-64
2021/06/02 12:05:19;;;;;;;4.10;2.08;;;;;;;29.64;36.12;98325.19;5064865;28;20220;-64
2021/06/02 12:07:45;;;;;;;3.17;1.92;;;;;;;29.53;39.23;98325.34;5064770;28;20220;-64
2021/06/02 12:10:12;;;;;;;3.47;2.25;;;;;;;29.56;37.79;98331.34;5064771;28;20028;-64
2021/06/02 12:12:39;;;;;;;3.33;1.92;;;;;;;29.44;37.47;98326.28;5064737;28;20013;-64
2021/06/02 12:15:05;;;;;;;4.40;2.28;;;;;;;29.19;39.28;98326.03;5064914;28;20044;-64